Time;durP1;ratioP1;P1;durP2;ratioP2;P2;SDS_P1;SDS_P2;PMS_P1;PMS_P2;Temp;Humidity;BMP_temperature;BMP_pressure;BME280_temperature;BME280_humidity;BME280_pressure;Samples;Min_cycle;Max_cycle;Signal;HPM_P1;HPM_P2
2022/03/09 00:00:17;;;;;;;14.47;7.17;;;-2.50;99.90;;;;;;4994431;28;20038;-81
2022/03/09 00:02:42;;;;;;;15.70;8.77;;;-2.50;99.90;;;;;;4994144;28;20031;-80
2022/03/09 00:05:08;;;;;;;15.20;7.87;;;-2.60;99.90;;;;;;4993913;28;20031;-81
2022/03/09 00:07:34;;;;;;;14.07;7.60;;;-2.60;99.90;;;;;;4976356;28;20047;-80
2022/03/09 00:10:00;;;;;;;17.47;8.47;;;-2.50;99.90;;;;;;4975808;28;20041;-80
2022/03/09 00:12:26;;;;;;;13.73;8.57;;;-2.60;99.90;;;;;;4993672;28;20049;-80
2022/03/09 00:14:51;;;;;;;18.93;8.73;;;-2.60;99.90;;;;;;4976647;28;20030;-80
2022/03/09 00:17:17;;;;;;;19.07;10.20;;;-2.70;99.90;;;;;;4993792;28;20390;-80
2022/03/09 00:19:43;;;;;;;20.37;10.33;;;-2.70;99.90;;;;;;4992581;28;20030;-80
2022/03/09 00:22:08;;;;;;;32.67;13.67;;;-2.70;99.90;;;;;;4993144;28;20035;-80
2022/03/09 00:24:34;;;;;;;26.97;13.43;;;-2.70;99.90;;;;;;4993635;28;20080;-80
2022/03/09 00:27:00;;;;;;;29.90;13.13;;;-2.70;99.90;;;;;;4993569;28;20026;-80
2022/03/09 00:29:26;;;;;;;26.43;10.90;;;-2.70;99.90;;;;;;4993257;28;20038;-80
2022/03/09 00:31:53;;;;;;;19.23;8.93;;;-2.70;99.90;;;;;;4993596;28;20410;-80
2022/03/09 00:34:18;;;;;;;15.93;8.77;;;-2.70;99.90;;;;;;4993214;28;20109;-80
2022/03/09 00:36:44;;;;;;;15.37;8.07;;;-2.70;99.90;;;;;;4991838;28;20042;-80
2022/03/09 00:39:09;;;;;;;16.40;7.80;;;-2.70;99.90;;;;;;4993792;28;20393;-80
2022/03/09 00:41:35;;;;;;;18.00;8.90;;;-2.80;99.90;;;;;;4993201;28;20566;-80
2022/03/09 00:44:01;;;;;;;19.57;9.60;;;-2.80;99.90;;;;;;4992037;28;20110;-80
2022/03/09 00:46:27;;;;;;;19.30;8.00;;;-2.80;99.90;;;;;;4993397;28;20034;-79
2022/03/09 00:48:53;;;;;;;13.37;8.23;;;-2.80;99.90;;;;;;4993145;28;20033;-80
2022/03/09 00:51:18;;;;;;;15.90;7.80;;;-2.90;99.90;;;;;;4993146;28;20037;-80
2022/03/09 00:53:44;;;;;;;17.13;8.33;;;-2.90;99.90;;;;;;4992982;28;20056;-80
2022/03/09 00:56:09;;;;;;;16.27;8.63;;;-3.00;99.90;;;;;;4992736;28;20467;-79
2022/03/09 00:58:35;;;;;;;15.37;8.87;;;-3.00;99.90;;;;;;4993138;28;20113;-80
2022/03/09 01:01:00;;;;;;;15.77;7.60;;;-3.00;99.90;;;;;;4993205;28;20026;-80
2022/03/09 01:03:26;;;;;;;17.43;7.83;;;-3.10;99.90;;;;;;4992902;28;20037;-79
2022/03/09 01:05:52;;;;;;;14.63;8.47;;;-3.10;99.90;;;;;;4991136;28;20041;-80
2022/03/09 01:08:17;;;;;;;18.77;8.70;;;-3.20;99.90;;;;;;4993026;28;20046;-80
2022/03/09 01:10:43;;;;;;;14.50;7.67;;;-3.20;99.90;;;;;;4991642;28;20030;-80
2022/03/09 01:13:08;;;;;;;15.87;8.83;;;-3.20;99.90;;;;;;4992672;28;20034;-80
2022/03/09 01:15:34;;;;;;;12.93;7.17;;;-3.20;99.90;;;;;;4991023;28;20038;-80
2022/03/09 01:17:59;;;;;;;14.00;8.27;;;-3.20;99.90;;;;;;4992638;28;20030;-80
2022/03/09 01:20:25;;;;;;;22.93;8.37;;;-3.20;99.90;;;;;;4992607;28;20455;-79
2022/03/09 01:22:52;;;;;;;15.10;7.63;;;-3.20;99.90;;;;;;4975646;28;20141;-80
2022/03/09 01:25:18;;;;;;;13.83;7.27;;;-3.20;99.90;;;;;;4975201;28;20470;-80
2022/03/09 01:27:44;;;;;;;21.77;8.53;;;-3.20;99.90;;;;;;4975033;28;20036;-80
2022/03/09 01:30:10;;;;;;;18.83;8.10;;;-3.20;99.90;;;;;;4991317;28;20026;-79
2022/03/09 01:32:36;;;;;;;16.10;8.20;;;-3.20;99.90;;;;;;4975086;28;20037;-79
2022/03/09 01:35:02;;;;;;;16.77;8.47;;;-3.30;99.90;;;;;;4992036;28;20049;-80
2022/03/09 01:37:28;;;;;;;17.40;8.07;;;-3.30;99.90;;;;;;4992208;28;20391;-80
2022/03/09 01:39:53;;;;;;;17.63;8.83;;;-3.30;99.90;;;;;;4991262;28;20030;-80
2022/03/09 01:42:19;;;;;;;21.60;8.73;;;-3.30;99.90;;;;;;4992229;28;20113;-79
2022/03/09 01:44:45;;;;;;;15.87;8.60;;;-3.40;99.90;;;;;;4991713;28;20035;-80
2022/03/09 01:47:10;;;;;;;16.17;8.20;;;-3.40;99.90;;;;;;4992150;28;20109;-79
2022/03/09 01:49:36;;;;;;;18.87;9.03;;;-3.50;99.90;;;;;;4991966;28;20483;-80
2022/03/09 01:52:03;;;;;;;13.90;8.20;;;-3.50;99.90;;;;;;4974604;28;20387;-80
2022/03/09 01:54:30;;;;;;;16.40;8.20;;;-3.50;99.90;;;;;;4991967;28;20031;-79
2022/03/09 01:56:57;;;;;;;16.00;9.50;;;-3.50;99.90;;;;;;4991600;28;20164;-79
2022/03/09 01:59:22;;;;;;;17.30;9.07;;;-3.60;99.90;;;;;;4991881;28;20042;-80
2022/03/09 02:01:48;;;;;;;18.13;8.70;;;-3.70;99.90;;;;;;4991389;28;20033;-80
2022/03/09 02:04:14;;;;;;;20.00;8.77;;;-3.70;99.90;;;;;;4991867;28;20061;-79
2022/03/09 02:06:40;;;;;;;18.17;9.30;;;-3.70;99.90;;;;;;4991212;28;20132;-79
2022/03/09 02:11:53;;;;;;;20.40;9.80;;;-3.80;99.90;;;;;;4992008;28;20330;-79
2022/03/09 02:14:30;;;;;;;21.57;10.93;;;-3.80;99.90;;;;;;4991423;28;20085;-80
2022/03/09 02:17:06;;;;;;;20.40;9.80;;;-3.80;99.90;;;;;;4991364;28;20030;-79
2022/03/09 02:19:32;;;;;;;15.97;9.87;;;-3.80;99.90;;;;;;4991254;28;20095;-79
2022/03/09 02:22:10;;;;;;;16.40;9.00;;;-3.80;99.90;;;;;;4973524;28;20030;-80
2022/03/09 02:24:36;;;;;;;17.37;9.27;;;-3.90;99.90;;;;;;4991528;28;20483;-79
2022/03/09 02:27:02;;;;;;;20.53;9.53;;;-3.80;99.90;;;;;;4991627;28;20061;-79
2022/03/09 02:29:28;;;;;;;18.90;9.17;;;-3.80;99.90;;;;;;4991622;28;20030;-79
2022/03/09 02:31:53;;;;;;;16.30;9.13;;;-3.90;99.90;;;;;;4974167;28;20026;-79
2022/03/09 02:34:19;;;;;;;17.93;8.90;;;-3.90;99.90;;;;;;4991356;28;20037;-80
2022/03/09 02:36:44;;;;;;;17.63;8.83;;;-3.90;99.90;;;;;;4991493;28;20101;-79
2022/03/09 02:39:10;;;;;;;15.87;8.60;;;-3.90;99.90;;;;;;4990112;28;20026;-79
2022/03/09 02:41:35;;;;;;;15.37;8.87;;;-4.00;99.90;;;;;;4990146;28;20145;-80
2022/03/09 02:44:02;;;;;;;18.87;9.53;;;-4.00;99.90;;;;;;4991306;28;20101;-81
2022/03/09 02:46:28;;;;;;;16.83;8.50;;;-4.00;99.90;;;;;;4973550;28;20026;-80
2022/03/09 02:48:54;;;;;;;19.73;9.70;;;-4.00;99.90;;;;;;4973715;28;20441;-80
2022/03/09 02:51:20;;;;;;;17.13;8.30;;;-4.00;99.90;;;;;;4991067;28;20034;-80
2022/03/09 02:53:45;;;;;;;18.50;9.17;;;-4.00;99.90;;;;;;4991083;28;20034;-80
2022/03/09 02:56:11;;;;;;;16.83;9.43;;;-3.90;99.90;;;;;;4991155;28;20027;-81
2022/03/09 02:58:36;;;;;;;16.07;8.90;;;-3.90;99.90;;;;;;4991122;28;20041;-80
2022/03/09 03:01:03;;;;;;;17.17;9.67;;;-3.90;99.90;;;;;;4973132;28;20117;-80
2022/03/09 03:03:28;;;;;;;15.47;8.60;;;-3.90;99.90;;;;;;4973686;28;20026;-80
2022/03/09 03:05:54;;;;;;;16.40;8.70;;;-4.00;99.90;;;;;;4991068;28;20030;-81
2022/03/09 03:08:19;;;;;;;17.67;9.10;;;-4.00;99.90;;;;;;4990724;28;20547;-80
2022/03/09 03:10:45;;;;;;;17.90;8.47;;;-4.00;99.90;;;;;;4990529;28;20106;-80
2022/03/09 03:13:10;;;;;;;16.60;8.13;;;-4.00;99.90;;;;;;4990962;28;20106;-81
2022/03/09 03:15:36;;;;;;;16.00;8.23;;;-4.00;99.90;;;;;;4973349;28;20476;-80
2022/03/09 03:18:01;;;;;;;14.07;8.50;;;-4.00;99.90;;;;;;4994617;28;20038;-80
2022/03/09 03:20:27;;;;;;;15.43;8.77;;;-4.10;99.90;;;;;;4994384;28;20034;-80
2022/03/09 03:22:53;;;;;;;18.47;8.40;;;-4.10;99.90;;;;;;4993496;28;20498;-80
2022/03/09 03:25:18;;;;;;;15.10;8.57;;;-4.10;99.90;;;;;;4993491;28;20041;-80
2022/03/09 03:27:44;;;;;;;17.37;9.27;;;-4.20;99.90;;;;;;4994823;28;20073;-81
2022/03/09 03:30:10;;;;;;;13.93;7.83;;;-4.30;99.90;;;;;;4994576;28;20057;-81
2022/03/09 03:32:36;;;;;;;14.33;9.00;;;-4.30;99.90;;;;;;4994261;28;20073;-81
2022/03/09 03:35:01;;;;;;;13.70;8.73;;;-4.30;99.90;;;;;;4994965;28;20030;-80
2022/03/09 03:37:27;;;;;;;13.57;7.67;;;-4.30;99.90;;;;;;4994987;28;20027;-80
2022/03/09 03:39:52;;;;;;;15.73;8.80;;;-4.30;99.90;;;;;;4995110;28;20034;-80
2022/03/09 03:42:18;;;;;;;15.60;8.37;;;-4.30;99.90;;;;;;4993133;28;20035;-81
2022/03/09 03:44:43;;;;;;;16.23;8.67;;;-4.30;99.90;;;;;;4994592;28;20386;-80
2022/03/09 03:47:09;;;;;;;14.80;8.47;;;-4.30;99.90;;;;;;4976960;28;20519;-80
2022/03/09 03:49:36;;;;;;;15.33;7.93;;;-4.30;99.90;;;;;;4994985;28;20070;-80
2022/03/09 03:52:01;;;;;;;15.47;8.33;;;-4.30;99.90;;;;;;4994263;28;20511;-81
2022/03/09 03:54:27;;;;;;;17.60;8.00;;;-4.30;99.90;;;;;;4994355;28;20034;-80
2022/03/09 03:56:52;;;;;;;18.77;9.30;;;-4.30;99.90;;;;;;4994624;28;20038;-80
2022/03/09 03:59:18;;;;;;;17.93;8.33;;;-4.40;99.90;;;;;;4994463;28;20070;-80
2022/03/09 04:01:43;;;;;;;16.63;8.23;;;-4.40;99.90;;;;;;4993006;28;20034;-81
2022/03/09 04:04:09;;;;;;;13.40;8.20;;;-4.40;99.90;;;;;;4994037;28;20577;-80
2022/03/09 04:06:34;;;;;;;19.73;9.00;;;-4.40;99.90;;;;;;4994286;28;20032;-80
2022/03/09 04:09:00;;;;;;;16.77;8.27;;;-4.50;99.90;;;;;;4993647;28;20132;-80
2022/03/09 04:11:26;;;;;;;16.60;9.37;;;-4.50;99.90;;;;;;4993539;28;20521;-80
2022/03/09 04:13:52;;;;;;;16.67;8.37;;;-4.60;99.90;;;;;;4976038;28;20032;-80
2022/03/09 04:16:17;;;;;;;16.73;7.80;;;-4.60;99.90;;;;;;4993677;28;20450;-80
2022/03/09 04:18:43;;;;;;;19.77;9.20;;;-4.60;99.90;;;;;;4993800;28;20076;-80
2022/03/09 04:21:08;;;;;;;13.80;8.57;;;-4.60;99.90;;;;;;4994085;28;20034;-80
2022/03/09 04:23:34;;;;;;;17.60;9.03;;;-4.60;99.90;;;;;;4993685;28;20549;-80
2022/03/09 04:26:00;;;;;;;20.90;8.40;;;-4.60;99.90;;;;;;4993036;28;20058;-80
2022/03/09 04:28:26;;;;;;;18.00;8.37;;;-4.70;99.90;;;;;;4992987;28;20018;-80
2022/03/09 04:30:52;;;;;;;19.37;8.83;;;-4.70;99.90;;;;;;4976892;28;20045;-80
2022/03/09 04:33:17;;;;;;;16.57;8.27;;;-4.70;99.90;;;;;;4993865;28;20458;-80
2022/03/09 04:35:43;;;;;;;16.03;9.07;;;-4.70;99.90;;;;;;4976074;28;20670;-80
2022/03/09 04:38:08;;;;;;;17.33;8.73;;;-4.70;99.90;;;;;;4992384;28;20022;-80
2022/03/09 04:40:34;;;;;;;16.67;8.90;;;-4.70;99.90;;;;;;4975972;28;20027;-80
2022/03/09 04:43:00;;;;;;;15.70;9.33;;;-4.80;99.90;;;;;;4993418;28;20026;-80
2022/03/09 04:45:25;;;;;;;14.77;8.60;;;-4.80;99.90;;;;;;4993312;28;20109;-80
2022/03/09 04:47:51;;;;;;;18.10;10.20;;;-4.80;99.90;;;;;;4993570;28;20023;-80
2022/03/09 04:50:17;;;;;;;20.40;10.47;;;-4.80;99.90;;;;;;4975640;28;20081;-81
2022/03/09 04:52:42;;;;;;;18.67;10.73;;;-4.80;99.90;;;;;;4992053;28;20454;-80
2022/03/09 04:55:08;;;;;;;18.27;10.13;;;-4.80;99.90;;;;;;4991289;28;20026;-80
2022/03/09 04:57:37;;;;;;;19.07;11.10;;;-4.80;99.90;;;;;;4992898;28;20035;-80
2022/03/09 05:00:04;;;;;;;20.47;10.53;;;-4.80;99.90;;;;;;4976003;28;20492;-80
2022/03/09 05:02:30;;;;;;;20.30;10.30;;;-4.80;99.90;;;;;;4993306;28;20023;-80
2022/03/09 05:04:55;;;;;;;23.90;10.33;;;-4.80;99.90;;;;;;4992882;28;20030;-80
2022/03/09 05:07:21;;;;;;;18.03;9.97;;;-4.80;99.90;;;;;;4975624;28;20496;-80
2022/03/09 05:09:46;;;;;;;19.10;10.33;;;-4.80;99.90;;;;;;4975535;28;20034;-80
2022/03/09 05:12:12;;;;;;;24.40;9.37;;;-4.80;99.90;;;;;;4975942;28;20030;-80
2022/03/09 05:14:38;;;;;;;18.80;8.30;;;-4.80;99.90;;;;;;4991991;28;20122;-81
2022/03/09 05:17:03;;;;;;;20.33;9.23;;;-4.80;99.90;;;;;;4993055;28;20432;-79
2022/03/09 05:19:29;;;;;;;19.70;10.10;;;-4.90;99.90;;;;;;4993055;28;20419;-80
2022/03/09 05:21:55;;;;;;;23.70;10.17;;;-4.90;99.90;;;;;;4992563;28;20042;-81
2022/03/09 05:24:21;;;;;;;23.07;10.67;;;-5.00;99.90;;;;;;4992136;28;20097;-81
2022/03/09 05:26:46;;;;;;;19.03;9.27;;;-5.00;99.90;;;;;;4991511;28;20113;-81
2022/03/09 05:29:13;;;;;;;21.43;9.87;;;-5.00;99.90;;;;;;4988848;28;20022;-80
2022/03/09 05:31:39;;;;;;;23.47;10.53;;;-5.00;99.90;;;;;;4991900;28;20475;-81
2022/03/09 05:34:05;;;;;;;24.80;9.97;;;-5.00;99.90;;;;;;4992078;28;20153;-81
2022/03/09 05:36:30;;;;;;;21.17;9.97;;;-5.10;99.90;;;;;;4991327;28;20029;-81
2022/03/09 05:38:56;;;;;;;20.20;9.77;;;-5.10;99.90;;;;;;4989388;28;20129;-81
2022/03/09 05:41:21;;;;;;;20.67;9.97;;;-5.20;99.90;;;;;;4990721;28;20035;-81
2022/03/09 05:43:49;;;;;;;21.13;10.50;;;-5.10;99.90;;;;;;4973977;28;20030;-81
2022/03/09 05:46:14;;;;;;;20.87;8.77;;;-5.20;99.90;;;;;;4988656;28;20024;-81
2022/03/09 05:48:40;;;;;;;18.60;8.97;;;-5.20;99.90;;;;;;4991298;28;20105;-81
2022/03/09 05:51:06;;;;;;;23.30;9.20;;;-5.20;99.90;;;;;;4988807;28;20022;-81
2022/03/09 05:53:31;;;;;;;17.67;9.87;;;-5.20;99.90;;;;;;4989408;28;20026;-81
2022/03/09 05:55:57;;;;;;;17.10;8.77;;;-5.20;99.90;;;;;;4990876;28;20026;-81
2022/03/09 05:58:22;;;;;;;20.57;10.27;;;-5.20;99.90;;;;;;4991187;28;20034;-81
2022/03/09 06:00:48;;;;;;;17.67;9.20;;;-5.30;99.90;;;;;;4973718;28;20026;-81
2022/03/09 06:03:13;;;;;;;18.43;9.33;;;-5.30;99.90;;;;;;4991284;28;20030;-81
2022/03/09 06:05:39;;;;;;;22.53;9.77;;;-5.30;99.90;;;;;;4990792;28;20019;-81
2022/03/09 06:08:04;;;;;;;15.60;8.80;;;-5.30;99.90;;;;;;4986621;28;20113;-81
2022/03/09 06:10:30;;;;;;;16.40;8.83;;;-5.20;99.90;;;;;;4991011;28;20046;-81
2022/03/09 06:12:56;;;;;;;22.50;9.50;;;-5.20;99.90;;;;;;4990704;28;20062;-81
2022/03/09 06:15:21;;;;;;;19.07;10.13;;;-5.20;99.90;;;;;;4990473;28;20034;-81
2022/03/09 06:17:49;;;;;;;22.70;10.03;;;-5.20;99.90;;;;;;4984542;28;20054;-81
2022/03/09 06:20:20;;;;;;;21.33;10.73;;;-5.10;99.90;;;;;;4990109;28;20037;-81
2022/03/09 06:22:46;;;;;;;24.80;10.20;;;-5.00;99.90;;;;;;4972971;28;20037;-81
2022/03/09 06:25:14;;;;;;;17.63;9.57;;;-5.00;99.90;;;;;;4990145;28;20022;-81
2022/03/09 06:27:48;;;;;;;17.30;10.27;;;-4.90;99.90;;;;;;4989927;28;20026;-81
2022/03/09 06:30:15;;;;;;;23.60;9.07;;;-4.90;99.90;;;;;;4960026;28;20031;-80
2022/03/09 06:32:41;;;;;;;16.00;9.63;;;-4.80;99.90;;;;;;4988243;28;20042;-81
2022/03/09 06:35:08;;;;;;;19.13;9.43;;;-4.70;99.90;;;;;;4985598;28;20041;-81
2022/03/09 06:37:34;;;;;;;20.73;8.67;;;-4.70;99.90;;;;;;4962801;28;20058;-81
2022/03/09 06:40:00;;;;;;;17.27;9.90;;;-4.60;99.90;;;;;;4987155;28;20041;-81
2022/03/09 06:42:26;;;;;;;20.40;10.73;;;-4.50;99.90;;;;;;4985637;28;20027;-81
2022/03/09 06:44:52;;;;;;;15.83;9.33;;;-4.30;99.90;;;;;;4988093;28;20026;-80
2022/03/09 06:47:17;;;;;;;16.67;9.60;;;-4.20;99.90;;;;;;4988133;28;20029;-81
2022/03/09 06:49:43;;;;;;;17.53;9.60;;;-4.00;99.90;;;;;;4987878;28;20027;-81
2022/03/09 06:52:09;;;;;;;19.10;8.97;;;-3.90;99.90;;;;;;4969404;28;20482;-81
2022/03/09 06:54:34;;;;;;;14.30;8.30;;;-3.80;99.90;;;;;;4987704;28;20414;-81
2022/03/09 06:57:00;;;;;;;16.60;8.40;;;-3.70;99.90;;;;;;4985965;28;20100;-80
2022/03/09 06:59:26;;;;;;;19.53;9.37;;;-3.60;99.90;;;;;;4987044;28;20060;-80
2022/03/09 07:01:51;;;;;;;17.37;10.57;;;-3.50;99.90;;;;;;4988117;28;20030;-80
2022/03/09 07:04:17;;;;;;;20.60;9.27;;;-3.40;99.90;;;;;;4988249;28;20136;-80
2022/03/09 07:06:42;;;;;;;14.77;8.23;;;-3.20;99.90;;;;;;4969113;28;20475;-79
2022/03/09 07:09:08;;;;;;;15.10;9.27;;;-3.10;99.90;;;;;;4987653;28;20361;-80
2022/03/09 07:11:33;;;;;;;18.33;9.53;;;-2.90;99.90;;;;;;4987560;28;20424;-80
2022/03/09 07:13:59;;;;;;;16.57;8.00;;;-2.80;99.90;;;;;;4970396;28;20033;-80
2022/03/09 07:16:25;;;;;;;16.17;8.40;;;-2.60;99.90;;;;;;4969832;28;20030;-80
2022/03/09 07:18:50;;;;;;;18.20;8.57;;;-2.60;99.90;;;;;;4986009;28;20030;-80
2022/03/09 07:21:18;;;;;;;16.40;9.50;;;-2.40;99.90;;;;;;4984462;28;20368;-80
2022/03/09 07:23:51;;;;;;;16.03;8.07;;;-2.20;99.90;;;;;;4968212;28;20037;-79
2022/03/09 07:26:18;;;;;;;15.40;8.37;;;-1.90;99.90;;;;;;4982291;28;20023;-80
2022/03/09 07:28:44;;;;;;;18.37;9.43;;;-1.80;99.90;;;;;;4985885;28;20030;-80
2022/03/09 07:31:09;;;;;;;15.00;8.40;;;-1.70;99.90;;;;;;4988113;28;20026;-81
2022/03/09 07:33:35;;;;;;;16.73;8.20;;;-1.50;99.90;;;;;;4966594;28;20153;-81
2022/03/09 07:36:02;;;;;;;18.93;8.23;;;-1.30;99.90;;;;;;4989722;28;20120;-79
2022/03/09 07:38:28;;;;;;;21.93;8.97;;;-1.00;99.90;;;;;;4992433;28;20379;-79
2022/03/09 07:40:53;;;;;;;13.20;7.97;;;-0.90;99.90;;;;;;4992106;28;20030;-79
2022/03/09 07:43:19;;;;;;;12.67;8.23;;;-0.90;99.90;;;;;;4993283;28;20033;-79
2022/03/09 07:45:45;;;;;;;21.63;9.57;;;-0.80;99.90;;;;;;4993565;28;20054;-79
2022/03/09 07:48:11;;;;;;;16.33;8.17;;;-0.60;99.90;;;;;;4993302;28;20050;-79
2022/03/09 07:50:37;;;;;;;14.90;9.10;;;-0.40;99.90;;;;;;4993677;28;20043;-79
2022/03/09 07:53:05;;;;;;;17.00;8.37;;;-0.30;99.90;;;;;;4993090;28;20026;-79
2022/03/09 07:55:31;;;;;;;21.60;10.27;;;-0.20;99.90;;;;;;4993196;28;20420;-79
2022/03/09 07:58:02;;;;;;;16.00;8.57;;;-0.10;99.90;;;;;;4993273;28;20061;-79
2022/03/09 08:00:27;;;;;;;15.00;8.70;;;0.00;99.90;;;;;;4987807;28;20731;-81
2022/03/09 08:02:53;;;;;;;15.47;9.07;;;0.20;99.90;;;;;;4973485;28;20033;-81
2022/03/09 08:05:19;;;;;;;13.67;8.10;;;0.30;99.90;;;;;;4989691;28;20383;-81
2022/03/09 08:07:47;;;;;;;20.13;8.50;;;0.40;99.90;;;;;;4987366;28;20050;-81
2022/03/09 08:10:15;;;;;;;16.80;8.43;;;0.50;99.90;;;;;;4984934;28;20033;-81
2022/03/09 08:12:42;;;;;;;16.77;9.40;;;0.60;99.90;;;;;;4980021;28;20038;-81
2022/03/09 08:15:07;;;;;;;13.37;8.43;;;0.90;99.90;;;;;;4978267;28;20038;-81
2022/03/09 08:17:36;;;;;;;17.00;8.40;;;1.00;99.90;;;;;;4970441;28;20038;-81
2022/03/09 08:20:02;;;;;;;16.53;8.40;;;1.30;99.90;;;;;;4987422;28;20514;-81
2022/03/09 08:22:28;;;;;;;14.27;8.33;;;1.60;99.90;;;;;;4984038;28;20035;-81
2022/03/09 08:24:53;;;;;;;14.43;8.00;;;1.90;99.90;;;;;;4984570;28;20058;-81
2022/03/09 08:27:19;;;;;;;21.03;8.67;;;2.10;99.90;;;;;;4977781;28;20060;-81
2022/03/09 08:29:50;;;;;;;19.13;8.33;;;2.20;99.90;;;;;;4984452;28;20044;-80
2022/03/09 08:32:20;;;;;;;23.80;9.03;;;2.20;99.90;;;;;;4989365;28;20018;-82
2022/03/09 08:34:46;;;;;;;18.87;8.67;;;2.10;99.90;;;;;;4970014;28;20035;-80
2022/03/09 08:37:12;;;;;;;18.30;8.17;;;2.20;99.90;;;;;;4987454;28;20499;-81
2022/03/09 08:39:38;;;;;;;24.20;9.40;;;2.30;99.90;;;;;;4977298;28;20109;-81
2022/03/09 08:42:07;;;;;;;17.00;8.97;;;2.60;99.90;;;;;;4980176;28;20034;-80
2022/03/09 08:44:33;;;;;;;17.63;9.33;;;2.80;99.90;;;;;;4982707;28;20031;-80
2022/03/09 08:46:59;;;;;;;21.67;9.17;;;3.10;99.90;;;;;;4970238;28;20032;-80
2022/03/09 08:49:25;;;;;;;19.23;10.00;;;3.10;99.90;;;;;;4978652;28;20027;-80
2022/03/09 08:51:50;;;;;;;18.00;9.50;;;3.50;99.90;;;;;;4980433;28;20043;-80
2022/03/09 08:54:16;;;;;;;17.53;9.37;;;3.40;99.90;;;;;;4983094;28;20022;-81
2022/03/09 08:56:41;;;;;;;18.07;9.73;;;3.60;99.90;;;;;;4994555;28;20382;-78
2022/03/09 08:59:07;;;;;;;20.60;9.63;;;3.70;99.90;;;;;;4995669;28;20038;-78
2022/03/09 09:01:32;;;;;;;19.93;10.80;;;4.10;99.90;;;;;;4995799;28;20033;-78
2022/03/09 09:04:02;;;;;;;20.00;9.37;;;4.20;99.90;;;;;;4985660;28;20030;-81
2022/03/09 09:06:30;;;;;;;14.73;9.43;;;4.20;99.90;;;;;;4982773;28;20040;-82
2022/03/09 09:09:05;;;;;;;20.53;11.00;;;4.40;99.90;;;;;;4981654;28;20051;-82
2022/03/09 09:11:31;;;;;;;19.80;10.30;;;4.50;99.90;;;;;;4986948;28;20081;-82
2022/03/09 09:13:57;;;;;;;19.23;9.83;;;4.60;99.90;;;;;;4986258;28;20277;-82
2022/03/09 09:16:23;;;;;;;22.40;10.47;;;4.70;99.90;;;;;;4995324;28;20030;-79
2022/03/09 09:18:48;;;;;;;16.20;9.60;;;4.80;99.90;;;;;;4995348;28;20065;-79
2022/03/09 09:21:14;;;;;;;18.53;11.23;;;4.90;99.90;;;;;;4993679;28;20026;-79
2022/03/09 09:23:41;;;;;;;16.50;10.00;;;5.20;99.90;;;;;;4994797;28;20375;-78
2022/03/09 09:26:06;;;;;;;25.70;10.47;;;5.30;99.90;;;;;;4994984;28;21211;-79
2022/03/09 09:28:32;;;;;;;19.07;9.27;;;5.50;99.50;;;;;;4986896;28;20050;-79
2022/03/09 09:30:57;;;;;;;23.37;9.90;;;6.00;98.20;;;;;;4983424;28;20130;-81
2022/03/09 09:33:23;;;;;;;20.23;10.30;;;6.30;96.90;;;;;;4977103;28;20740;-81
2022/03/09 09:35:49;;;;;;;20.57;9.73;;;6.90;95.20;;;;;;4981731;28;20051;-81
2022/03/09 09:38:14;;;;;;;15.30;9.73;;;7.00;93.80;;;;;;4977141;28;20406;-81
2022/03/09 09:40:43;;;;;;;20.90;10.37;;;6.90;93.30;;;;;;4981134;28;20690;-81
2022/03/09 09:43:15;;;;;;;18.53;10.40;;;6.50;93.20;;;;;;4979739;28;20026;-81
2022/03/09 09:45:42;;;;;;;20.57;10.17;;;6.70;94.00;;;;;;4993565;28;20085;-78
2022/03/09 09:48:09;;;;;;;17.80;9.70;;;7.40;92.70;;;;;;4994685;28;20026;-74
2022/03/09 09:50:37;;;;;;;21.70;10.20;;;7.90;91.60;;;;;;4993201;28;20452;-74
2022/03/09 09:53:04;;;;;;;17.90;11.00;;;7.90;90.80;;;;;;4998837;28;20039;-73
2022/03/09 09:55:30;;;;;;;18.70;10.57;;;8.30;90.20;;;;;;4992808;28;20089;-74
2022/03/09 09:57:58;;;;;;;19.07;10.33;;;8.40;89.20;;;;;;4976245;28;20501;-73
2022/03/09 10:00:24;;;;;;;15.07;10.10;;;8.70;86.40;;;;;;5001238;28;20092;-80
2022/03/09 10:02:50;;;;;;;18.40;10.67;;;9.10;83.10;;;;;;4988076;28;20030;-80
2022/03/09 10:05:18;;;;;;;20.10;10.03;;;9.80;79.90;;;;;;4988781;28;20101;-81
2022/03/09 10:08:02;;;;;;;22.13;10.13;;;9.90;76.00;;;;;;4986529;28;20497;-81
2022/03/09 10:10:28;;;;;;;18.13;10.03;;;10.10;76.00;;;;;;4988623;28;20479;-81
2022/03/09 10:13:19;;;;;;;18.50;10.43;;;9.50;77.00;;;;;;4988013;28;20085;-81
2022/03/09 10:15:47;;;;;;;16.03;9.53;;;10.00;74.10;;;;;;4985037;28;20141;-81
2022/03/09 10:18:17;;;;;;;23.17;9.50;;;10.30;71.90;;;;;;4983080;28;20037;-81
2022/03/09 10:20:44;;;;;;;20.10;10.03;;;9.90;71.80;;;;;;4988229;28;20034;-81
2022/03/09 10:23:10;;;;;;;15.53;10.00;;;9.50;71.70;;;;;;4988256;28;20120;-79
2022/03/09 10:25:38;;;;;;;21.05;9.65;;;10.00;70.60;;;;;;4970510;28;20030;-80
2022/03/09 10:28:08;;;;;;;14.77;9.95;;;9.70;69.30;;;;;;4988016;28;20422;-80
2022/03/09 10:30:36;;;;;;;16.27;9.85;;;9.50;69.40;;;;;;4987785;28;20026;-80
2022/03/09 10:33:10;;;;;;;14.27;9.65;;;9.90;71.20;;;;;;4970451;28;20100;-80
2022/03/09 10:35:44;;;;;;;16.90;10.00;;;10.10;70.80;;;;;;4988395;28;20045;-79
2022/03/09 10:38:15;;;;;;;18.37;9.07;;;10.50;68.10;;;;;;4988460;28;20038;-80
2022/03/09 10:40:43;;;;;;;16.23;9.90;;;10.40;65.00;;;;;;4988224;28;20085;-80
2022/03/09 10:43:17;;;;;;;15.68;9.10;;;10.10;65.60;;;;;;4970048;28;20058;-80
2022/03/09 10:46:09;;;;;;;14.77;9.23;;;10.60;65.70;;;;;;4988032;28;20105;-80
2022/03/09 10:48:55;;;;;;;14.40;9.50;;;11.70;63.10;;;;;;4970170;28;20038;-80
2022/03/09 10:51:26;;;;;;;;;;;11.20;61.40;;;;;;4987969;28;20092;-80
2022/03/09 10:53:52;;;;;;;18.33;9.15;;;11.20;61.10;;;;;;4969955;28;19913;-80
2022/03/09 10:56:22;;;;;;;15.80;8.70;;;11.00;61.80;;;;;;4986048;28;20493;-80
2022/03/09 10:58:48;;;;;;;18.35;9.35;;;11.50;62.10;;;;;;4987828;28;20030;-80
2022/03/09 11:01:18;;;;;;;12.43;9.20;;;11.90;60.30;;;;;;4969575;28;20030;-80
2022/03/09 11:03:44;;;;;;;12.05;8.73;;;12.10;59.00;;;;;;4986030;28;20030;-80
2022/03/09 11:06:14;;;;;;;14.65;9.43;;;11.90;59.60;;;;;;4987719;28;20027;-80
2022/03/09 11:08:41;;;;;;;14.68;8.40;;;11.90;59.20;;;;;;4992124;28;20042;-81
2022/03/09 11:11:08;;;;;;;13.25;8.73;;;13.10;56.10;;;;;;4991019;28;20026;-81
2022/03/09 11:13:36;;;;;;;13.80;8.00;;;13.30;54.00;;;;;;4993628;28;20057;-81
2022/03/09 11:16:03;;;;;;;17.13;8.73;;;12.70;55.70;;;;;;4991672;28;20081;-82
2022/03/09 11:18:30;;;;;;;14.10;9.05;;;12.70;55.40;;;;;;4971309;28;20085;-81
2022/03/09 11:20:58;;;;;;;12.77;8.20;;;13.40;53.10;;;;;;4990672;28;20092;-81
2022/03/09 11:23:25;;;;;;;14.07;8.20;;;13.60;52.40;;;;;;4990079;28;20140;-81
2022/03/09 11:25:56;;;;;;;13.40;8.20;;;12.90;53.50;;;;;;4991316;28;20026;-81
2022/03/09 11:28:24;;;;;;;14.80;8.60;;;12.80;54.30;;;;;;4975115;28;20085;-78
2022/03/09 11:31:07;;;;;;;14.35;8.55;;;13.00;53.80;;;;;;4991856;28;20390;-78
2022/03/09 11:33:36;;;;;;;13.00;8.00;;;12.50;51.70;;;;;;4993544;28;20510;-78
2022/03/09 11:36:02;;;;;;;14.38;8.38;;;12.90;52.00;;;;;;4975662;28;20056;-78
2022/03/09 11:38:34;;;;;;;15.18;8.25;;;12.90;50.20;;;;;;4995641;28;20068;-78
2022/03/09 11:41:16;;;;;;;13.77;8.25;;;13.10;51.70;;;;;;4979317;28;20023;-78
2022/03/09 11:43:42;;;;;;;12.13;8.00;;;13.10;50.10;;;;;;4996878;28;20031;-78
2022/03/09 11:46:08;;;;;;;10.57;7.18;;;13.50;49.70;;;;;;4996511;28;20080;-78
2022/03/09 11:48:51;;;;;;;11.77;7.25;;;13.80;48.50;;;;;;4996795;28;20021;-78
2022/03/09 11:51:18;;;;;;;12.35;7.45;;;14.30;47.30;;;;;;4994785;28;20027;-78
2022/03/09 11:53:45;;;;;;;14.70;8.85;;;14.30;47.50;;;;;;4991795;28;20019;-79
2022/03/09 11:56:29;;;;;;;11.10;7.18;;;13.70;48.10;;;;;;4991938;28;20158;-67
2022/03/09 11:59:28;;;;;;;22.27;8.47;;;13.70;47.70;;;;;;4973460;28;20495;-68
2022/03/09 12:02:00;;;;;;;13.98;7.28;;;13.30;48.00;;;;;;4990224;28;20290;-68
2022/03/09 12:04:50;;;;;;;15.27;7.40;;;13.50;48.50;;;;;;4987848;28;20019;-81
2022/03/09 12:07:33;;;;;;;9.48;6.47;;;13.90;47.30;;;;;;4987235;28;20038;-82
2022/03/09 12:10:02;;;;;;;7.97;5.32;;;14.60;46.30;;;;;;4988112;28;20080;-82
2022/03/09 12:12:29;;;;;;;11.85;6.28;;;14.40;45.10;;;;;;4989220;28;20128;-82
2022/03/09 12:15:07;;;;;;;10.13;5.80;;;14.80;45.70;;;;;;4972765;28;20717;-83
2022/03/09 12:17:37;;;;;;;12.00;6.10;;;15.20;43.50;;;;;;4990415;28;20114;-82
2022/03/09 12:20:14;;;;;;;10.65;5.82;;;14.80;44.70;;;;;;4990279;28;20065;-82
2022/03/09 12:23:01;;;;;;;11.48;6.32;;;14.30;45.80;;;;;;4989716;28;20038;-82
2022/03/09 12:25:46;;;;;;;10.20;7.10;;;14.00;45.50;;;;;;4979663;28;20144;-83
2022/03/09 12:28:29;;;;;;;11.48;6.00;;;14.00;45.40;;;;;;4991004;28;20044;-82
2022/03/09 12:30:57;;;;;;;24.98;18.13;;;14.60;46.50;;;;;;4971677;28;20080;-83
2022/03/09 12:33:37;;;;;;;7.90;5.60;;;14.90;43.10;;;;;;4971443;28;20133;-83
2022/03/09 12:36:26;;;;;;;13.95;5.53;;;15.10;43.10;;;;;;4972110;28;20092;-83
2022/03/09 12:38:54;;;;;;;7.05;5.10;;;14.80;43.00;;;;;;4981282;28;20034;-77
2022/03/09 12:41:39;;;;;;;7.68;5.85;;;15.20;42.20;;;;;;4994589;28;20029;-79